sensor_id;sensor_type;location;lat;lon;timestamp;pressure;altitude;pressure_sealevel;temperature;humidity
33422;BME280;19763;55.798;37.782;2022-11-15T00:00:07;100205.97;;;1.77;50.38
33422;BME280;19763;55.798;37.782;2022-11-15T00:02:33;100206.19;;;1.88;49.42
33422;BME280;19763;55.798;37.782;2022-11-15T00:04:58;100205.31;;;1.86;49.34
33422;BME280;19763;55.798;37.782;2022-11-15T00:07:24;100204.53;;;1.88;48.58
33422;BME280;19763;55.798;37.782;2022-11-15T00:09:50;100211.50;;;1.96;48.48
33422;BME280;19763;55.798;37.782;2022-11-15T00:12:15;100202.16;;;1.98;49.18
33422;BME280;19763;55.798;37.782;2022-11-15T00:14:41;100206.31;;;1.93;49.57
33422;BME280;19763;55.798;37.782;2022-11-15T00:17:06;100199.19;;;1.79;48.76
33422;BME280;19763;55.798;37.782;2022-11-15T00:19:32;100203.63;;;1.86;49.57
33422;BME280;19763;55.798;37.782;2022-11-15T00:21:58;100201.13;;;1.89;49.38
33422;BME280;19763;55.798;37.782;2022-11-15T00:24:24;100191.50;;;1.78;48.59
33422;BME280;19763;55.798;37.782;2022-11-15T00:26:49;100197.22;;;1.66;48.31
33422;BME280;19763;55.798;37.782;2022-11-15T00:29:15;100187.19;;;1.75;48.60
33422;BME280;19763;55.798;37.782;2022-11-15T00:31:40;100187.41;;;1.84;48.89
33422;BME280;19763;55.798;37.782;2022-11-15T00:34:06;100197.63;;;1.84;49.06
33422;BME280;19763;55.798;37.782;2022-11-15T00:36:34;100200.94;;;1.80;50.02
33422;BME280;19763;55.798;37.782;2022-11-15T00:39:00;100186.63;;;1.87;49.59
33422;BME280;19763;55.798;37.782;2022-11-15T00:41:26;100181.00;;;1.65;48.65
33422;BME280;19763;55.798;37.782;2022-11-15T00:43:51;100182.94;;;1.74;49.48
33422;BME280;19763;55.798;37.782;2022-11-15T00:46:17;100188.94;;;1.76;49.60
33422;BME280;19763;55.798;37.782;2022-11-15T00:48:42;100187.28;;;1.78;49.24
33422;BME280;19763;55.798;37.782;2022-11-15T00:51:08;100183.25;;;1.89;49.24
33422;BME280;19763;55.798;37.782;2022-11-15T00:53:34;100171.38;;;1.90;49.10
33422;BME280;19763;55.798;37.782;2022-11-15T00:55:59;100168.72;;;1.85;48.72
33422;BME280;19763;55.798;37.782;2022-11-15T00:58:25;100160.19;;;1.86;49.65
33422;BME280;19763;55.798;37.782;2022-11-15T01:00:51;100157.66;;;1.86;49.34
33422;BME280;19763;55.798;37.782;2022-11-15T01:03:16;100155.03;;;1.83;49.30
33422;BME280;19763;55.798;37.782;2022-11-15T01:05:42;100162.59;;;1.79;48.59
33422;BME280;19763;55.798;37.782;2022-11-15T01:08:13;100137.84;;;1.75;48.77
33422;BME280;19763;55.798;37.782;2022-11-15T01:10:39;100154.66;;;1.66;48.82
33422;BME280;19763;55.798;37.782;2022-11-15T01:13:04;100156.97;;;1.54;48.93
33422;BME280;19763;55.798;37.782;2022-11-15T01:15:30;100162.22;;;1.62;48.95
33422;BME280;19763;55.798;37.782;2022-11-15T01:17:56;100150.63;;;1.76;49.24
33422;BME280;19763;55.798;37.782;2022-11-15T01:20:21;100157.16;;;1.63;49.03
33422;BME280;19763;55.798;37.782;2022-11-15T01:22:47;100146.34;;;1.75;49.43
33422;BME280;19763;55.798;37.782;2022-11-15T01:25:12;100148.22;;;1.84;49.32
33422;BME280;19763;55.798;37.782;2022-11-15T01:27:38;100140.53;;;1.82;48.96
33422;BME280;19763;55.798;37.782;2022-11-15T01:30:05;100129.16;;;1.68;49.48
33422;BME280;19763;55.798;37.782;2022-11-15T01:32:31;100131.78;;;1.71;49.96
33422;BME280;19763;55.798;37.782;2022-11-15T01:34:56;100131.91;;;1.76;49.33
33422;BME280;19763;55.798;37.782;2022-11-15T01:37:22;100124.00;;;1.65;50.22
33422;BME280;19763;55.798;37.782;2022-11-15T01:39:48;100112.84;;;1.60;49.65
33422;BME280;19763;55.798;37.782;2022-11-15T01:42:14;100132.47;;;1.64;49.58
33422;BME280;19763;55.798;37.782;2022-11-15T01:44:41;100140.81;;;1.57;49.24
33422;BME280;19763;55.798;37.782;2022-11-15T01:47:17;100133.28;;;1.61;48.71
33422;BME280;19763;55.798;37.782;2022-11-15T01:50:12;100135.16;;;1.32;48.71
33422;BME280;19763;55.798;37.782;2022-11-15T01:52:40;100125.28;;;1.46;49.59
33422;BME280;19763;55.798;37.782;2022-11-15T01:55:19;100129.81;;;1.58;49.26
33422;BME280;19763;55.798;37.782;2022-11-15T01:57:49;100096.09;;;1.33;49.68
33422;BME280;19763;55.798;37.782;2022-11-15T02:00:16;100114.34;;;1.50;48.85
33422;BME280;19763;55.798;37.782;2022-11-15T02:02:42;100121.34;;;1.60;49.03
33422;BME280;19763;55.798;37.782;2022-11-15T02:05:08;100132.25;;;1.53;50.05
33422;BME280;19763;55.798;37.782;2022-11-15T02:07:35;100117.59;;;1.44;50.23
33422;BME280;19763;55.798;37.782;2022-11-15T02:10:11;100121.13;;;1.51;49.14
33422;BME280;19763;55.798;37.782;2022-11-15T02:12:40;100125.59;;;1.60;49.97
33422;BME280;19763;55.798;37.782;2022-11-15T02:15:08;100115.41;;;1.60;49.61
33422;BME280;19763;55.798;37.782;2022-11-15T02:29:07;100102.03;;;1.33;50.59
33422;BME280;19763;55.798;37.782;2022-11-15T02:34:40;100089.47;;;1.41;50.24
33422;BME280;19763;55.798;37.782;2022-11-15T02:39:51;100095.53;;;1.46;50.78
33422;BME280;19763;55.798;37.782;2022-11-15T02:42:25;100110.19;;;1.57;51.23
33422;BME280;19763;55.798;37.782;2022-11-15T02:45:13;100125.72;;;1.66;50.36
33422;BME280;19763;55.798;37.782;2022-11-15T02:47:44;100100.13;;;1.61;50.48
33422;BME280;19763;55.798;37.782;2022-11-15T02:50:14;100104.16;;;1.51;51.04
33422;BME280;19763;55.798;37.782;2022-11-15T02:52:41;100100.97;;;1.62;50.71
33422;BME280;19763;55.798;37.782;2022-11-15T02:55:30;100092.28;;;1.53;50.31
33422;BME280;19763;55.798;37.782;2022-11-15T03:00:35;100098.06;;;1.46;52.04
33422;BME280;19763;55.798;37.782;2022-11-15T03:08:37;100089.31;;;1.35;51.12
33422;BME280;19763;55.798;37.782;2022-11-15T03:11:14;100098.56;;;1.30;51.19
33422;BME280;19763;55.798;37.782;2022-11-15T03:16:36;100073.31;;;1.42;51.34
33422;BME280;19763;55.798;37.782;2022-11-15T03:19:24;100078.56;;;1.48;51.53
33422;BME280;19763;55.798;37.782;2022-11-15T03:21:52;100061.25;;;1.35;51.11
33422;BME280;19763;55.798;37.782;2022-11-15T03:24:20;100087.00;;;1.46;50.73
33422;BME280;19763;55.798;37.782;2022-11-15T03:26:48;100081.50;;;1.27;51.22
33422;BME280;19763;55.798;37.782;2022-11-15T03:29:18;100081.56;;;1.30;51.04
33422;BME280;19763;55.798;37.782;2022-11-15T03:31:55;100081.59;;;1.32;50.78
33422;BME280;19763;55.798;37.782;2022-11-15T03:34:32;100077.38;;;1.34;50.73
33422;BME280;19763;55.798;37.782;2022-11-15T03:36:59;100076.56;;;1.35;51.68
33422;BME280;19763;55.798;37.782;2022-11-15T03:39:25;100079.09;;;1.35;51.59
33422;BME280;19763;55.798;37.782;2022-11-15T03:47:10;100099.09;;;1.16;50.92
33422;BME280;19763;55.798;37.782;2022-11-15T03:49:42;100055.06;;;0.87;51.57
33422;BME280;19763;55.798;37.782;2022-11-15T03:52:09;100079.00;;;0.94;50.81
33422;BME280;19763;55.798;37.782;2022-11-15T03:54:35;100092.00;;;1.03;51.12
33422;BME280;19763;55.798;37.782;2022-11-15T03:57:01;100085.44;;;1.13;50.89
33422;BME280;19763;55.798;37.782;2022-11-15T03:59:26;100077.06;;;1.18;51.60
33422;BME280;19763;55.798;37.782;2022-11-15T04:01:52;100078.31;;;1.01;51.39
33422;BME280;19763;55.798;37.782;2022-11-15T04:04:18;100058.47;;;0.88;51.82
33422;BME280;19763;55.798;37.782;2022-11-15T04:06:43;100075.19;;;1.11;51.42
33422;BME280;19763;55.798;37.782;2022-11-15T04:09:09;100069.81;;;1.00;51.64
33422;BME280;19763;55.798;37.782;2022-11-15T04:11:34;100068.88;;;0.97;52.84
33422;BME280;19763;55.798;37.782;2022-11-15T04:14:00;100071.44;;;0.97;52.33
33422;BME280;19763;55.798;37.782;2022-11-15T04:16:26;100061.50;;;1.08;51.99
33422;BME280;19763;55.798;37.782;2022-11-15T04:18:51;100055.72;;;1.16;51.58
33422;BME280;19763;55.798;37.782;2022-11-15T04:21:37;100064.81;;;1.05;52.13
33422;BME280;19763;55.798;37.782;2022-11-15T04:24:21;100057.00;;;0.97;52.91
33422;BME280;19763;55.798;37.782;2022-11-15T04:26:46;100061.31;;;1.00;52.63
33422;BME280;19763;55.798;37.782;2022-11-15T04:29:12;100060.84;;;0.80;52.42
33422;BME280;19763;55.798;37.782;2022-11-15T04:31:56;100057.75;;;0.93;52.61
33422;BME280;19763;55.798;37.782;2022-11-15T04:34:22;100056.84;;;0.91;52.83
33422;BME280;19763;55.798;37.782;2022-11-15T04:36:47;100069.94;;;1.05;52.86
33422;BME280;19763;55.798;37.782;2022-11-15T04:39:31;100062.34;;;1.08;52.06
33422;BME280;19763;55.798;37.782;2022-11-15T04:41:57;100058.66;;;0.95;54.24
33422;BME280;19763;55.798;37.782;2022-11-15T04:44:22;100061.88;;;0.88;53.69
33422;BME280;19763;55.798;37.782;2022-11-15T04:46:48;100057.16;;;1.03;53.35
33422;BME280;19763;55.798;37.782;2022-11-15T04:49:13;100048.91;;;0.77;53.58
33422;BME280;19763;55.798;37.782;2022-11-15T04:51:39;100011.25;;;0.67;53.67
33422;BME280;19763;55.798;37.782;2022-11-15T04:54:05;100039.91;;;0.93;53.17
33422;BME280;19763;55.798;37.782;2022-11-15T04:56:31;100045.00;;;0.93;52.93
33422;BME280;19763;55.798;37.782;2022-11-15T04:58:56;100038.06;;;0.86;53.18
33422;BME280;19763;55.798;37.782;2022-11-15T05:01:22;100038.22;;;0.94;53.15
33422;BME280;19763;55.798;37.782;2022-11-15T05:03:47;100033.16;;;0.95;53.08
33422;BME280;19763;55.798;37.782;2022-11-15T05:06:31;100035.63;;;0.92;53.27
33422;BME280;19763;55.798;37.782;2022-11-15T05:08:57;100031.56;;;1.00;53.24
33422;BME280;19763;55.798;37.782;2022-11-15T05:11:23;100018.47;;;0.85;53.59
33422;BME280;19763;55.798;37.782;2022-11-15T05:13:49;100046.53;;;0.86;53.68
33422;BME280;19763;55.798;37.782;2022-11-15T05:16:15;100039.97;;;0.96;53.28
33422;BME280;19763;55.798;37.782;2022-11-15T05:18:41;100044.28;;;0.99;53.32
33422;BME280;19763;55.798;37.782;2022-11-15T05:21:08;100035.72;;;0.97;52.77
33422;BME280;19763;55.798;37.782;2022-11-15T05:23:34;100033.31;;;1.01;52.69
33422;BME280;19763;55.798;37.782;2022-11-15T05:26:01;100013.28;;;0.80;52.49
33422;BME280;19763;55.798;37.782;2022-11-15T05:28:27;100029.03;;;1.00;52.37
33422;BME280;19763;55.798;37.782;2022-11-15T05:30:53;100021.50;;;1.07;52.78
33422;BME280;19763;55.798;37.782;2022-11-15T05:33:19;100024.03;;;1.05;52.79
33422;BME280;19763;55.798;37.782;2022-11-15T05:35:51;100007.81;;;1.01;52.64
33422;BME280;19763;55.798;37.782;2022-11-15T05:38:19;100021.53;;;1.08;52.45
33422;BME280;19763;55.798;37.782;2022-11-15T05:40:45;100023.06;;;1.00;52.04
33422;BME280;19763;55.798;37.782;2022-11-15T05:43:11;100025.28;;;0.84;53.20
33422;BME280;19763;55.798;37.782;2022-11-15T05:45:37;100009.44;;;0.99;52.97
33422;BME280;19763;55.798;37.782;2022-11-15T05:48:06;100021.41;;;1.02;52.07
33422;BME280;19763;55.798;37.782;2022-11-15T05:50:34;100014.47;;;0.96;52.54
33422;BME280;19763;55.798;37.782;2022-11-15T05:53:02;100019.00;;;1.08;51.98
33422;BME280;19763;55.798;37.782;2022-11-15T05:55:28;100007.28;;;1.16;50.95
33422;BME280;19763;55.798;37.782;2022-11-15T05:57:53;100005.53;;;1.15;51.29
33422;BME280;19763;55.798;37.782;2022-11-15T06:00:19;99991.75;;;1.06;52.17
33422;BME280;19763;55.798;37.782;2022-11-15T06:02:45;100003.06;;;1.17;52.43
33422;BME280;19763;55.798;37.782;2022-11-15T06:05:10;100007.56;;;1.30;52.40
33422;BME280;19763;55.798;37.782;2022-11-15T06:07:36;99997.34;;;1.29;52.00
33422;BME280;19763;55.798;37.782;2022-11-15T06:10:01;100012.91;;;1.41;52.21
33422;BME280;19763;55.798;37.782;2022-11-15T06:12:28;100012.16;;;1.47;51.62
33422;BME280;19763;55.798;37.782;2022-11-15T06:14:54;100009.72;;;1.51;51.58
33422;BME280;19763;55.798;37.782;2022-11-15T06:17:19;99994.16;;;1.39;51.89
33422;BME280;19763;55.798;37.782;2022-11-15T06:19:45;100001.63;;;1.30;51.12
33422;BME280;19763;55.798;37.782;2022-11-15T06:22:11;99994.16;;;1.39;50.92
33422;BME280;19763;55.798;37.782;2022-11-15T06:24:36;100002.78;;;1.44;51.06
33422;BME280;19763;55.798;37.782;2022-11-15T06:27:02;99995.72;;;1.34;51.03
33422;BME280;19763;55.798;37.782;2022-11-15T06:29:27;99990.88;;;1.46;50.61
33422;BME280;19763;55.798;37.782;2022-11-15T06:31:53;99985.66;;;1.40;50.09
33422;BME280;19763;55.798;37.782;2022-11-15T06:34:19;99983.94;;;1.39;49.66
33422;BME280;19763;55.798;37.782;2022-11-15T06:36:44;99978.94;;;1.45;50.44
33422;BME280;19763;55.798;37.782;2022-11-15T06:39:10;99982.47;;;1.50;50.74
33422;BME280;19763;55.798;37.782;2022-11-15T06:41:35;99980.59;;;1.42;51.81
33422;BME280;19763;55.798;37.782;2022-11-15T06:44:02;99962.41;;;1.26;50.85
33422;BME280;19763;55.798;37.782;2022-11-15T06:46:28;99976.84;;;1.24;51.12
33422;BME280;19763;55.798;37.782;2022-11-15T06:48:54;99969.84;;;1.15;51.13
33422;BME280;19763;55.798;37.782;2022-11-15T06:51:19;99964.31;;;1.36;51.39
33422;BME280;19763;55.798;37.782;2022-11-15T06:53:45;99974.53;;;1.36;51.24
33422;BME280;19763;55.798;37.782;2022-11-15T06:56:11;99994.91;;;1.35;52.03
33422;BME280;19763;55.798;37.782;2022-11-15T06:58:37;99971.88;;;1.32;51.54
33422;BME280;19763;55.798;37.782;2022-11-15T07:01:05;99951.53;;;1.35;51.50
33422;BME280;19763;55.798;37.782;2022-11-15T07:03:31;99969.47;;;1.40;50.71
33422;BME280;19763;55.798;37.782;2022-11-15T07:05:59;99963.75;;;1.50;50.93
33422;BME280;19763;55.798;37.782;2022-11-15T07:08:27;99939.13;;;1.52;50.47
33422;BME280;19763;55.798;37.782;2022-11-15T07:10:54;99951.97;;;1.57;50.34
33422;BME280;19763;55.798;37.782;2022-11-15T07:13:24;99933.81;;;1.41;51.60
33422;BME280;19763;55.798;37.782;2022-11-15T07:15:50;99934.63;;;1.38;51.06
33422;BME280;19763;55.798;37.782;2022-11-15T07:18:15;99941.47;;;1.41;51.06
33422;BME280;19763;55.798;37.782;2022-11-15T07:20:41;99934.06;;;1.55;51.36
33422;BME280;19763;55.798;37.782;2022-11-15T07:23:07;99937.31;;;1.48;51.05
33422;BME280;19763;55.798;37.782;2022-11-15T07:25:32;99942.56;;;1.54;51.27
33422;BME280;19763;55.798;37.782;2022-11-15T07:27:58;99942.63;;;1.57;51.78
33422;BME280;19763;55.798;37.782;2022-11-15T07:30:25;99947.50;;;1.46;51.40
33422;BME280;19763;55.798;37.782;2022-11-15T07:32:58;99946.06;;;1.59;50.99
33422;BME280;19763;55.798;37.782;2022-11-15T07:35:25;99945.41;;;1.71;51.36
33422;BME280;19763;55.798;37.782;2022-11-15T07:40:21;99942.91;;;1.72;50.57
33422;BME280;19763;55.798;37.782;2022-11-15T07:42:47;99926.78;;;1.77;50.99
33422;BME280;19763;55.798;37.782;2022-11-15T07:45:20;99912.41;;;1.80;50.34
33422;BME280;19763;55.798;37.782;2022-11-15T07:47:47;99922.38;;;1.68;50.41
33422;BME280;19763;55.798;37.782;2022-11-15T07:50:12;99923.09;;;1.61;50.92
33422;BME280;19763;55.798;37.782;2022-11-15T07:52:38;99922.59;;;1.79;50.57
33422;BME280;19763;55.798;37.782;2022-11-15T07:55:04;99921.63;;;1.72;50.30
33422;BME280;19763;55.798;37.782;2022-11-15T07:57:30;99913.63;;;1.53;50.65
33422;BME280;19763;55.798;37.782;2022-11-15T07:59:56;99912.06;;;1.60;51.39
33422;BME280;19763;55.798;37.782;2022-11-15T08:02:21;99914.84;;;1.72;51.80
33422;BME280;19763;55.798;37.782;2022-11-15T08:04:47;99873.59;;;1.52;50.98
33422;BME280;19763;55.798;37.782;2022-11-15T08:07:13;99908.06;;;1.75;51.24
33422;BME280;19763;55.798;37.782;2022-11-15T08:09:39;99907.22;;;1.76;50.97
33422;BME280;19763;55.798;37.782;2022-11-15T08:12:04;99904.53;;;1.68;51.19
33422;BME280;19763;55.798;37.782;2022-11-15T08:14:30;99915.63;;;1.68;51.23
33422;BME280;19763;55.798;37.782;2022-11-15T08:16:56;99911.38;;;1.70;50.29
33422;BME280;19763;55.798;37.782;2022-11-15T08:19:22;99908.03;;;1.73;50.64
33422;BME280;19763;55.798;37.782;2022-11-15T08:21:47;99902.81;;;1.67;50.63
33422;BME280;19763;55.798;37.782;2022-11-15T08:24:14;99912.94;;;1.64;50.70
33422;BME280;19763;55.798;37.782;2022-11-15T08:26:40;99905.44;;;1.71;50.52
33422;BME280;19763;55.798;37.782;2022-11-15T08:29:06;99904.69;;;1.77;51.00
33422;BME280;19763;55.798;37.782;2022-11-15T08:31:35;99894.44;;;1.74;51.21
33422;BME280;19763;55.798;37.782;2022-11-15T08:34:02;99883.50;;;1.81;50.92
33422;BME280;19763;55.798;37.782;2022-11-15T08:36:28;99897.25;;;1.42;51.79
33422;BME280;19763;55.798;37.782;2022-11-15T08:38:53;99890.84;;;1.64;51.70
33422;BME280;19763;55.798;37.782;2022-11-15T08:41:28;99889.50;;;1.37;51.84
33422;BME280;19763;55.798;37.782;2022-11-15T08:43:55;99894.50;;;1.31;51.81
33422;BME280;19763;55.798;37.782;2022-11-15T08:46:21;99876.31;;;1.14;52.68
33422;BME280;19763;55.798;37.782;2022-11-15T08:48:46;99884.06;;;1.20;52.75
33422;BME280;19763;55.798;37.782;2022-11-15T08:51:12;99879.28;;;1.36;52.91
33422;BME280;19763;55.798;37.782;2022-11-15T08:53:38;99867.56;;;1.46;52.16
33422;BME280;19763;55.798;37.782;2022-11-15T08:56:07;99888.53;;;1.32;52.07
33422;BME280;19763;55.798;37.782;2022-11-15T08:58:34;99875.19;;;1.44;52.68
33422;BME280;19763;55.798;37.782;2022-11-15T09:00:59;99878.00;;;1.15;52.31
33422;BME280;19763;55.798;37.782;2022-11-15T09:03:25;99854.16;;;1.12;52.72
33422;BME280;19763;55.798;37.782;2022-11-15T09:05:59;99864.63;;;1.26;52.25
33422;BME280;19763;55.798;37.782;2022-11-15T09:08:29;99853.53;;;1.24;51.87
33422;BME280;19763;55.798;37.782;2022-11-15T09:10:55;99857.47;;;1.53;52.35
33422;BME280;19763;55.798;37.782;2022-11-15T09:13:21;99858.50;;;1.63;52.10
33422;BME280;19763;55.798;37.782;2022-11-15T09:15:46;99865.56;;;1.31;52.33
33422;BME280;19763;55.798;37.782;2022-11-15T09:18:12;99859.97;;;1.05;52.94
33422;BME280;19763;55.798;37.782;2022-11-15T09:20:38;99858.81;;;0.89;53.24
33422;BME280;19763;55.798;37.782;2022-11-15T09:23:04;99859.09;;;1.04;52.88
33422;BME280;19763;55.798;37.782;2022-11-15T09:25:31;99849.00;;;1.09;53.46
33422;BME280;19763;55.798;37.782;2022-11-15T09:27:56;99838.06;;;1.14;53.19
33422;BME280;19763;55.798;37.782;2022-11-15T09:30:23;99844.66;;;1.50;52.97
33422;BME280;19763;55.798;37.782;2022-11-15T09:32:49;99846.56;;;1.62;52.59
33422;BME280;19763;55.798;37.782;2022-11-15T09:35:15;99827.13;;;1.70;52.71
33422;BME280;19763;55.798;37.782;2022-11-15T09:37:40;99835.78;;;1.77;52.58
33422;BME280;19763;55.798;37.782;2022-11-15T09:40:09;99835.06;;;1.87;52.14
33422;BME280;19763;55.798;37.782;2022-11-15T09:50:19;99821.38;;;1.82;51.48
33422;BME280;19763;55.798;37.782;2022-11-15T09:52:48;99826.88;;;1.55;51.44
33422;BME280;19763;55.798;37.782;2022-11-15T09:55:14;99828.03;;;1.72;51.41
33422;BME280;19763;55.798;37.782;2022-11-15T09:58:26;99832.91;;;1.59;51.35
33422;BME280;19763;55.798;37.782;2022-11-15T10:00:55;99810.06;;;1.68;51.91
33422;BME280;19763;55.798;37.782;2022-11-15T10:03:27;99813.53;;;1.23;52.04
33422;BME280;19763;55.798;37.782;2022-11-15T10:05:57;99817.59;;;1.59;51.48
33422;BME280;19763;55.798;37.782;2022-11-15T10:08:43;99817.13;;;1.81;51.32
33422;BME280;19763;55.798;37.782;2022-11-15T10:11:17;99805.94;;;1.75;51.01
33422;BME280;19763;55.798;37.782;2022-11-15T10:13:45;99817.25;;;1.90;51.24
33422;BME280;19763;55.798;37.782;2022-11-15T10:16:43;99807.09;;;1.95;51.47
33422;BME280;19763;55.798;37.782;2022-11-15T10:22:13;99766.63;;;1.65;51.86
33422;BME280;19763;55.798;37.782;2022-11-15T10:24:43;99778.72;;;1.77;51.77
33422;BME280;19763;55.798;37.782;2022-11-15T10:27:16;99753.38;;;1.89;51.88
33422;BME280;19763;55.798;37.782;2022-11-15T10:29:44;99774.72;;;1.91;51.37
33422;BME280;19763;55.798;37.782;2022-11-15T10:32:11;99780.66;;;1.92;51.58
33422;BME280;19763;55.798;37.782;2022-11-15T10:34:37;99776.63;;;2.06;52.04
33422;BME280;19763;55.798;37.782;2022-11-15T10:37:03;99772.31;;;2.02;51.33
33422;BME280;19763;55.798;37.782;2022-11-15T10:39:29;99774.44;;;1.74;51.93
33422;BME280;19763;55.798;37.782;2022-11-15T10:41:54;99765.25;;;1.85;52.21
33422;BME280;19763;55.798;37.782;2022-11-15T10:44:27;99769.97;;;1.61;52.89
33422;BME280;19763;55.798;37.782;2022-11-15T10:49:23;99765.41;;;1.41;53.14
33422;BME280;19763;55.798;37.782;2022-11-15T10:57:27;99742.84;;;1.67;53.50
33422;BME280;19763;55.798;37.782;2022-11-15T10:59:59;99765.84;;;1.69;53.37
33422;BME280;19763;55.798;37.782;2022-11-15T11:04:57;99753.09;;;1.69;53.59
33422;BME280;19763;55.798;37.782;2022-11-15T11:07:27;99735.41;;;1.81;53.51
33422;BME280;19763;55.798;37.782;2022-11-15T11:10:20;99745.50;;;1.75;53.78
33422;BME280;19763;55.798;37.782;2022-11-15T11:12:46;99737.84;;;1.75;53.82
33422;BME280;19763;55.798;37.782;2022-11-15T11:15:14;99728.59;;;1.82;53.64
33422;BME280;19763;55.798;37.782;2022-11-15T11:20:25;99724.69;;;1.47;53.69
33422;BME280;19763;55.798;37.782;2022-11-15T11:28:23;99727.78;;;1.83;53.69
33422;BME280;19763;55.798;37.782;2022-11-15T11:39:28;99708.91;;;1.73;54.12
33422;BME280;19763;55.798;37.782;2022-11-15T11:47:34;99698.72;;;1.75;54.18
33422;BME280;19763;55.798;37.782;2022-11-15T11:50:30;99693.66;;;1.78;55.02
33422;BME280;19763;55.798;37.782;2022-11-15T11:53:28;99691.06;;;1.75;55.11
33422;BME280;19763;55.798;37.782;2022-11-15T11:56:02;99691.81;;;1.67;54.69
33422;BME280;19763;55.798;37.782;2022-11-15T11:58:40;99676.19;;;1.47;55.38
33422;BME280;19763;55.798;37.782;2022-11-15T12:06:45;99686.63;;;1.63;55.26
33422;BME280;19763;55.798;37.782;2022-11-15T12:09:23;99671.66;;;1.29;56.58
33422;BME280;19763;55.798;37.782;2022-11-15T12:16:57;99679.63;;;1.49;57.43
33422;BME280;19763;55.798;37.782;2022-11-15T12:19:24;99676.31;;;1.57;57.40
33422;BME280;19763;55.798;37.782;2022-11-15T12:22:00;99671.94;;;1.48;58.50
33422;BME280;19763;55.798;37.782;2022-11-15T12:27:17;99668.53;;;0.95;61.37
33422;BME280;19763;55.798;37.782;2022-11-15T12:29:51;99659.50;;;1.13;61.77
33422;BME280;19763;55.798;37.782;2022-11-15T12:32:31;99656.06;;;1.11;62.77
33422;BME280;19763;55.798;37.782;2022-11-15T12:34:59;99668.25;;;1.29;63.30
33422;BME280;19763;55.798;37.782;2022-11-15T12:45:44;99658.25;;;0.89;66.94
33422;BME280;19763;55.798;37.782;2022-11-15T12:58:45;99647.19;;;0.87;70.67
33422;BME280;19763;55.798;37.782;2022-11-15T13:04:21;99623.75;;;0.59;71.51
33422;BME280;19763;55.798;37.782;2022-11-15T13:12:09;99631.84;;;0.85;71.96
33422;BME280;19763;55.798;37.782;2022-11-15T13:14:49;99621.47;;;0.75;72.33
33422;BME280;19763;55.798;37.782;2022-11-15T13:17:23;99616.19;;;0.64;73.44
33422;BME280;19763;55.798;37.782;2022-11-15T13:20:07;99617.19;;;0.74;73.66
33422;BME280;19763;55.798;37.782;2022-11-15T13:22:40;99612.00;;;0.20;75.11
33422;BME280;19763;55.798;37.782;2022-11-15T13:30:51;99614.75;;;0.31;76.42
33422;BME280;19763;55.798;37.782;2022-11-15T13:33:36;99606.63;;;0.05;77.78
33422;BME280;19763;55.798;37.782;2022-11-15T13:36:15;99611.09;;;-0.64;79.63
33422;BME280;19763;55.798;37.782;2022-11-15T13:38:42;99593.09;;;-0.34;79.42
33422;BME280;19763;55.798;37.782;2022-11-15T13:41:19;99581.22;;;-0.35;79.42
33422;BME280;19763;55.798;37.782;2022-11-15T13:43:46;99601.69;;;-0.29;79.61
33422;BME280;19763;55.798;37.782;2022-11-15T13:46:13;99599.38;;;-0.18;80.61
33422;BME280;19763;55.798;37.782;2022-11-15T13:48:41;99595.28;;;-0.11;79.39
33422;BME280;19763;55.798;37.782;2022-11-15T13:51:23;99584.94;;;-0.18;79.06
33422;BME280;19763;55.798;37.782;2022-11-15T13:54:34;99585.25;;;-0.02;80.00
33422;BME280;19763;55.798;37.782;2022-11-15T13:57:14;99568.84;;;-0.18;80.44
33422;BME280;19763;55.798;37.782;2022-11-15T13:59:53;99586.28;;;0.06;80.30
33422;BME280;19763;55.798;37.782;2022-11-15T14:02:26;99584.47;;;0.01;79.85
33422;BME280;19763;55.798;37.782;2022-11-15T14:04:59;99585.72;;;-0.22;80.68
33422;BME280;19763;55.798;37.782;2022-11-15T14:07:28;99582.31;;;-0.22;81.20
33422;BME280;19763;55.798;37.782;2022-11-15T14:09:57;99576.25;;;-0.68;82.19
33422;BME280;19763;55.798;37.782;2022-11-15T14:12:27;99586.75;;;-0.53;81.53
33422;BME280;19763;55.798;37.782;2022-11-15T14:14:54;99562.44;;;-0.80;83.34
33422;BME280;19763;55.798;37.782;2022-11-15T14:19:55;99573.91;;;-0.97;84.21
33422;BME280;19763;55.798;37.782;2022-11-15T14:22:23;99575.59;;;-0.98;84.65
33422;BME280;19763;55.798;37.782;2022-11-15T14:27:35;99570.38;;;-0.66;83.12
33422;BME280;19763;55.798;37.782;2022-11-15T14:30:00;99561.69;;;-0.74;83.56
33422;BME280;19763;55.798;37.782;2022-11-15T14:32:28;99557.28;;;-0.43;82.98
33422;BME280;19763;55.798;37.782;2022-11-15T14:35:01;99563.09;;;-0.49;81.64
33422;BME280;19763;55.798;37.782;2022-11-15T14:37:31;99547.63;;;-0.60;83.01
33422;BME280;19763;55.798;37.782;2022-11-15T14:40:00;99540.53;;;-0.75;83.06
33422;BME280;19763;55.798;37.782;2022-11-15T14:42:27;99553.88;;;-0.45;83.00
33422;BME280;19763;55.798;37.782;2022-11-15T14:44:53;99552.31;;;-0.78;83.48
33422;BME280;19763;55.798;37.782;2022-11-15T14:47:19;99547.00;;;-0.49;83.47
33422;BME280;19763;55.798;37.782;2022-11-15T14:49:45;99546.59;;;-0.68;82.86
33422;BME280;19763;55.798;37.782;2022-11-15T14:54:42;99543.41;;;-0.59;83.06
33422;BME280;19763;55.798;37.782;2022-11-15T14:57:07;99536.09;;;-0.44;83.25
33422;BME280;19763;55.798;37.782;2022-11-15T14:59:33;99534.06;;;-0.59;83.40
33422;BME280;19763;55.798;37.782;2022-11-15T15:01:59;99536.38;;;-0.71;83.02
33422;BME280;19763;55.798;37.782;2022-11-15T15:04:25;99532.09;;;-0.72;83.29
33422;BME280;19763;55.798;37.782;2022-11-15T15:06:50;99527.44;;;-0.52;83.52
33422;BME280;19763;55.798;37.782;2022-11-15T15:09:16;99531.09;;;-0.39;84.19
33422;BME280;19763;55.798;37.782;2022-11-15T15:11:41;99522.44;;;-0.47;83.63
33422;BME280;19763;55.798;37.782;2022-11-15T15:14:07;99524.59;;;-0.25;83.62
33422;BME280;19763;55.798;37.782;2022-11-15T15:16:33;99524.09;;;-0.49;83.82